createdAt,value
2017-11-21T00:01:48.673Z,14.85
2017-11-21T00:04:15.542Z,14.95
2017-11-21T00:06:41.700Z,15.40
2017-11-21T00:09:09.007Z,16.60
2017-11-21T00:11:35.147Z,15.95
2017-11-21T00:14:01.273Z,18.20
2017-11-21T00:16:27.830Z,17.12
2017-11-21T00:18:53.950Z,17.90
2017-11-21T00:21:20.085Z,16.52
2017-11-21T00:23:46.372Z,15.25
2017-11-21T00:26:12.552Z,14.63
2017-11-21T00:28:38.671Z,14.43
2017-11-21T00:31:04.872Z,14.13
2017-11-21T00:33:30.992Z,11.85
2017-11-21T00:35:57.125Z,10.15
2017-11-21T00:38:23.269Z,10.93
2017-11-21T00:40:49.408Z,11.20
2017-11-21T00:43:15.522Z,10.88
2017-11-21T00:45:41.667Z,10.00
2017-11-21T00:48:07.798Z,9.52
2017-11-21T00:50:34.801Z,9.95
2017-11-21T00:53:01.671Z,10.63
2017-11-21T00:55:27.796Z,11.40
2017-11-21T00:57:54.351Z,11.85
2017-11-21T01:00:20.607Z,12.52
2017-11-21T01:02:46.808Z,10.85
2017-11-21T01:05:13.320Z,12.00
2017-11-21T01:07:39.429Z,12.93
2017-11-21T01:10:06.318Z,11.68
2017-11-21T01:12:32.469Z,10.20
2017-11-21T01:14:58.625Z,10.90
2017-11-21T01:17:24.731Z,11.43
2017-11-21T01:19:50.927Z,11.32
2017-11-21T01:22:17.835Z,11.70
2017-11-21T01:24:43.955Z,12.65
2017-11-21T01:27:10.115Z,14.10
2017-11-21T01:29:36.520Z,14.93
2017-11-21T01:32:02.739Z,15.75
2017-11-21T01:34:30.033Z,16.98
2017-11-21T01:36:56.150Z,18.87
2017-11-21T01:39:23.000Z,21.15
2017-11-21T01:41:49.850Z,20.70
2017-11-21T01:44:16.059Z,21.48
2017-11-21T01:46:42.239Z,20.85
2017-11-21T01:49:09.117Z,25.55
2017-11-21T01:51:35.269Z,23.00
2017-11-21T01:54:01.399Z,23.65
2017-11-21T01:56:27.529Z,23.65
2017-11-21T01:58:53.680Z,23.17
2017-11-21T02:01:19.863Z,21.10
2017-11-21T02:03:47.566Z,20.40
2017-11-21T02:06:14.544Z,18.10
2017-11-21T02:08:40.684Z,18.95
2017-11-21T02:11:06.799Z,19.08
2017-11-21T02:13:33.654Z,20.52
2017-11-21T02:16:00.600Z,19.55
2017-11-21T02:18:26.753Z,17.87
2017-11-21T02:20:53.642Z,19.87
2017-11-21T02:23:19.857Z,19.55
2017-11-21T02:25:46.077Z,18.60
2017-11-21T02:28:12.202Z,20.15
2017-11-21T02:30:38.345Z,19.80
2017-11-21T02:33:04.599Z,21.50
2017-11-21T02:35:31.517Z,21.90
2017-11-21T02:37:57.670Z,22.25
2017-11-21T02:40:28.972Z,22.10
2017-11-21T02:42:55.849Z,22.20
2017-11-21T02:45:22.046Z,20.15
2017-11-21T02:47:48.195Z,22.08
2017-11-21T02:50:15.085Z,21.65
2017-11-21T02:52:41.993Z,18.95
2017-11-21T02:55:08.118Z,18.85
2017-11-21T02:57:34.267Z,16.65
2017-11-21T03:00:00.459Z,16.85
2017-11-21T03:02:26.595Z,14.63
2017-11-21T03:04:52.766Z,13.40
2017-11-21T03:07:18.915Z,13.40
2017-11-21T03:09:45.369Z,14.10
2017-11-21T03:12:11.485Z,12.00
2017-11-21T03:14:37.637Z,13.30
2017-11-21T03:17:03.817Z,12.73
2017-11-21T03:19:31.257Z,12.85
2017-11-21T03:22:09.585Z,14.70
2017-11-21T03:24:47.902Z,13.48
2017-11-21T03:27:14.042Z,13.50
2017-11-21T03:29:40.200Z,12.60
2017-11-21T03:32:07.096Z,14.35
2017-11-21T03:34:33.240Z,16.92
2017-11-21T03:36:59.401Z,16.75
2017-11-21T03:39:25.526Z,19.27
2017-11-21T03:41:51.658Z,18.98
2017-11-21T03:44:17.824Z,19.83
2017-11-21T03:46:44.002Z,20.45
2017-11-21T03:49:10.182Z,19.85
2017-11-21T03:51:36.313Z,22.17
2017-11-21T03:54:02.474Z,22.02
2017-11-21T03:56:28.736Z,21.12
2017-11-21T03:58:55.049Z,22.35
2017-11-21T04:01:21.177Z,21.08
2017-11-21T04:03:47.321Z,23.27
2017-11-21T04:06:13.490Z,23.80
2017-11-21T04:08:39.653Z,24.55
2017-11-21T04:11:06.305Z,23.05
2017-11-21T04:13:32.603Z,26.55
2017-11-21T04:15:59.512Z,23.55
2017-11-21T04:18:26.396Z,26.05
2017-11-21T04:20:52.523Z,25.12
2017-11-21T04:23:18.642Z,26.27
2017-11-21T04:25:44.870Z,26.27
2017-11-21T04:28:11.066Z,26.55
2017-11-21T04:30:37.202Z,26.05
2017-11-21T04:33:04.669Z,25.40
2017-11-21T04:35:30.935Z,23.40
2017-11-21T04:37:57.865Z,24.83
2017-11-21T04:40:23.989Z,25.90
2017-11-21T04:42:50.599Z,26.52
2017-11-21T04:45:17.488Z,24.40
2017-11-21T04:47:43.673Z,25.45
2017-11-21T04:50:09.827Z,25.83
2017-11-21T04:52:36.013Z,25.83
2017-11-21T04:55:02.241Z,20.73
2017-11-21T04:57:28.384Z,19.08
2017-11-21T04:59:54.594Z,16.83
2017-11-21T05:02:20.783Z,16.50
2017-11-21T05:04:46.938Z,13.80
2017-11-21T05:07:13.082Z,11.25
2017-11-21T05:09:39.310Z,10.27
2017-11-21T05:12:05.437Z,8.73
2017-11-21T05:14:31.572Z,7.93
2017-11-21T05:16:57.749Z,6.80
2017-11-21T05:19:23.877Z,6.87
2017-11-21T05:21:50.036Z,6.53
2017-11-21T05:24:16.162Z,6.10
2017-11-21T05:26:42.305Z,6.00
2017-11-21T05:29:08.570Z,5.95
2017-11-21T05:31:34.740Z,6.50
2017-11-21T05:34:09.018Z,6.90
2017-11-21T05:36:41.598Z,8.02
2017-11-21T05:39:07.741Z,7.47
2017-11-21T05:41:33.901Z,7.93
2017-11-21T05:44:00.027Z,10.02
2017-11-21T05:46:28.694Z,11.68
2017-11-21T05:48:55.001Z,13.88
2017-11-21T05:51:21.145Z,13.85
2017-11-21T05:53:48.042Z,16.05
2017-11-21T05:56:14.206Z,15.70
2017-11-21T05:58:41.160Z,17.92
2017-11-21T06:01:08.546Z,17.35
2017-11-21T06:03:34.865Z,21.77
2017-11-21T06:06:01.926Z,22.35
2017-11-21T06:08:28.046Z,21.92
2017-11-21T06:10:54.161Z,23.10
2017-11-21T06:13:20.357Z,22.35
2017-11-21T06:15:46.502Z,20.55
2017-11-21T06:18:22.527Z,23.65
2017-11-21T06:20:50.215Z,22.60
2017-11-21T06:23:16.335Z,22.70
2017-11-21T06:25:42.519Z,23.00
2017-11-21T06:28:09.409Z,22.08
2017-11-21T06:30:36.304Z,23.58
2017-11-21T06:33:03.180Z,21.73
2017-11-21T06:35:29.356Z,24.58
2017-11-21T06:37:56.258Z,23.45
2017-11-21T06:40:22.361Z,23.55
2017-11-21T06:42:49.268Z,24.15
2017-11-21T06:45:15.401Z,23.48
2017-11-21T06:47:41.526Z,24.15
2017-11-21T06:50:07.684Z,23.52
2017-11-21T06:52:33.877Z,23.00
2017-11-21T06:55:00.855Z,22.87
2017-11-21T06:57:27.721Z,21.52
2017-11-21T06:59:53.894Z,21.45
2017-11-21T07:02:20.030Z,21.65
2017-11-21T07:04:46.190Z,22.65
2017-11-21T07:07:12.326Z,20.17
2017-11-21T07:09:38.502Z,21.85
2017-11-21T07:12:04.698Z,21.73
2017-11-21T07:14:30.817Z,21.20
2017-11-21T07:16:56.926Z,21.00
2017-11-21T07:19:23.807Z,20.88
2017-11-21T07:21:49.929Z,20.70
2017-11-21T07:24:16.033Z,20.33
2017-11-21T07:26:42.982Z,20.02
2017-11-21T07:29:09.898Z,19.40
2017-11-21T07:31:36.042Z,22.60
2017-11-21T07:34:02.196Z,18.33
2017-11-21T07:36:28.322Z,18.05
2017-11-21T07:38:54.462Z,19.67
2017-11-21T07:41:29.410Z,16.70
2017-11-21T07:44:07.715Z,16.55
2017-11-21T07:46:37.351Z,17.52
2017-11-21T07:49:03.670Z,16.55
2017-11-21T07:51:30.005Z,15.85
2017-11-21T07:53:56.343Z,15.13
2017-11-21T07:56:22.679Z,16.27
2017-11-21T07:58:48.978Z,16.30
2017-11-21T08:01:15.325Z,15.68
2017-11-21T08:03:41.708Z,14.70
2017-11-21T08:06:08.796Z,14.02
2017-11-21T08:08:35.149Z,13.50
2017-11-21T08:11:02.834Z,12.70
2017-11-21T08:13:29.207Z,13.13
2017-11-21T08:15:55.601Z,12.50
2017-11-21T08:18:21.926Z,13.80
2017-11-21T08:20:48.229Z,12.02
2017-11-21T08:23:14.578Z,12.52
2017-11-21T08:25:41.704Z,12.57
2017-11-21T08:28:08.058Z,12.85
2017-11-21T08:30:34.402Z,12.20
2017-11-21T08:33:00.931Z,13.20
2017-11-21T08:35:27.278Z,12.35
2017-11-21T08:37:55.358Z,11.35
2017-11-21T08:40:21.725Z,12.35
2017-11-21T08:42:48.067Z,11.50
2017-11-21T08:45:14.426Z,10.55
2017-11-21T08:47:40.754Z,10.13
2017-11-21T08:50:07.108Z,9.45
2017-11-21T08:52:33.494Z,8.65
2017-11-21T08:54:59.854Z,7.47
2017-11-21T08:57:26.342Z,6.35
2017-11-21T08:59:52.809Z,6.10
2017-11-21T09:02:19.917Z,5.60
2017-11-21T09:04:46.326Z,5.50
2017-11-21T09:07:13.406Z,5.22
2017-11-21T09:09:39.721Z,4.05
2017-11-21T09:12:06.149Z,3.25
2017-11-21T09:14:32.489Z,3.35
2017-11-21T09:16:58.829Z,2.33
2017-11-21T09:19:25.180Z,2.97
2017-11-21T09:21:51.495Z,2.72
2017-11-21T09:24:17.825Z,2.50
2017-11-21T09:26:44.293Z,2.20
2017-11-21T09:29:10.613Z,2.05
2017-11-21T09:31:36.919Z,2.20
2017-11-21T09:34:03.249Z,1.75
2017-11-21T09:36:29.529Z,2.00
2017-11-21T09:38:56.015Z,1.50
2017-11-21T09:41:22.353Z,1.52
2017-11-21T09:43:54.342Z,1.62
2017-11-21T09:46:20.649Z,1.25
2017-11-21T09:48:46.989Z,1.40
2017-11-21T09:51:13.309Z,1.48
2017-11-21T09:53:39.625Z,1.37
2017-11-21T09:56:05.921Z,1.20
2017-11-21T10:01:04.556Z,1.27
2017-11-21T10:03:30.901Z,1.70
2017-11-21T10:05:57.227Z,1.73
2017-11-21T10:08:24.357Z,2.10
2017-11-21T10:10:50.737Z,2.03
2017-11-21T10:15:48.444Z,2.28
2017-11-21T10:18:14.811Z,2.10
2017-11-21T10:20:41.147Z,2.42
2017-11-21T10:23:08.209Z,2.50
2017-11-21T10:25:34.642Z,2.75
2017-11-21T10:28:01.100Z,2.45
2017-11-21T10:30:27.425Z,3.20
2017-11-21T10:32:56.003Z,3.67
2017-11-21T10:35:22.329Z,3.70
2017-11-21T10:37:48.715Z,3.45
2017-11-21T10:40:15.036Z,3.05
2017-11-21T10:42:41.380Z,2.90
2017-11-21T10:45:07.689Z,2.80
2017-11-21T10:47:34.025Z,2.75
2017-11-21T10:50:00.353Z,3.00
2017-11-21T10:52:33.126Z,2.80
2017-11-21T10:54:59.485Z,2.92
2017-11-21T10:57:25.815Z,2.85
2017-11-21T10:59:52.154Z,3.20
2017-11-21T11:02:19.254Z,3.17
2017-11-21T11:04:45.650Z,3.42
2017-11-21T11:07:12.011Z,3.00
2017-11-21T11:09:38.347Z,3.70
2017-11-21T11:12:11.225Z,3.60
2017-11-21T11:14:38.329Z,4.15
2017-11-21T11:17:04.674Z,4.43
2017-11-21T11:19:31.005Z,4.47
2017-11-21T11:21:57.410Z,4.40
2017-11-21T11:24:23.731Z,4.53
2017-11-21T11:26:54.196Z,5.25
2017-11-21T11:29:20.532Z,5.20
2017-11-21T11:31:47.634Z,6.10
2017-11-21T11:34:14.724Z,5.80
2017-11-21T11:36:41.069Z,6.70
2017-11-21T11:39:08.143Z,6.53
2017-11-21T11:41:34.510Z,7.55
2017-11-21T11:44:03.201Z,8.20
2017-11-21T11:46:30.267Z,7.95
2017-11-21T11:48:56.665Z,8.38
2017-11-21T11:51:23.733Z,8.30
2017-11-21T11:53:50.090Z,7.37
2017-11-21T11:56:16.449Z,8.10
2017-11-21T12:01:15.754Z,8.85
2017-11-21T12:03:42.130Z,8.45
2017-11-21T12:06:08.501Z,8.93
2017-11-21T12:08:34.842Z,10.18
2017-11-21T12:11:01.285Z,9.40
2017-11-21T12:13:27.618Z,9.00
2017-11-21T12:15:58.454Z,9.40
2017-11-21T12:18:25.041Z,9.60
2017-11-21T12:20:51.559Z,10.38
2017-11-21T12:23:17.901Z,10.07
2017-11-21T12:25:44.229Z,9.85
2017-11-21T12:28:10.573Z,10.88
2017-11-21T12:30:36.930Z,11.80
2017-11-21T12:33:03.265Z,9.80
2017-11-21T12:38:03.902Z,10.40
2017-11-21T12:40:30.254Z,10.43
2017-11-21T12:42:56.600Z,9.73
2017-11-21T12:45:22.979Z,10.25
2017-11-21T12:47:50.636Z,9.30
2017-11-21T12:50:18.627Z,9.68
2017-11-21T12:52:51.788Z,8.00
2017-11-21T12:55:18.978Z,8.60
2017-11-21T12:57:45.340Z,8.88
2017-11-21T13:00:11.667Z,8.55
2017-11-21T13:02:37.975Z,8.90
2017-11-21T13:05:04.381Z,8.23
2017-11-21T13:07:30.749Z,7.30
2017-11-21T13:09:59.030Z,8.27
2017-11-21T13:12:26.158Z,8.50
2017-11-21T13:14:52.514Z,7.70
2017-11-21T13:17:18.924Z,7.53
2017-11-21T13:19:46.108Z,7.22
2017-11-21T13:22:12.563Z,7.68
2017-11-21T13:24:38.937Z,8.98
2017-11-21T13:27:11.498Z,7.45
2017-11-21T13:29:40.940Z,6.93
2017-11-21T13:32:07.329Z,7.30
2017-11-21T13:34:35.061Z,6.85
2017-11-21T13:37:01.565Z,6.12
2017-11-21T13:39:27.976Z,5.97
2017-11-21T13:41:55.397Z,6.40
2017-11-21T13:44:28.025Z,7.55
2017-11-21T13:46:55.083Z,7.50
2017-11-21T13:49:22.490Z,8.80
2017-11-21T13:51:48.941Z,9.40
2017-11-21T13:54:15.290Z,7.80
2017-11-21T13:56:45.890Z,8.43
2017-11-21T13:59:12.801Z,7.43
2017-11-21T14:01:38.992Z,7.25
2017-11-21T14:04:05.897Z,9.15
2017-11-21T14:06:32.065Z,7.55
2017-11-21T14:08:58.218Z,8.52
2017-11-21T14:11:24.363Z,8.77
2017-11-21T14:13:53.748Z,9.25
2017-11-21T14:16:20.667Z,8.93
2017-11-21T14:18:47.564Z,9.65
2017-11-21T14:21:13.738Z,8.70
2017-11-21T14:23:39.912Z,9.15
2017-11-21T14:26:06.112Z,7.87
2017-11-21T14:28:33.072Z,9.55
2017-11-21T14:31:02.290Z,8.35
2017-11-21T14:33:28.430Z,9.00
2017-11-21T14:35:54.613Z,8.60
2017-11-21T14:38:20.762Z,9.70
2017-11-21T14:40:47.651Z,8.77
2017-11-21T14:43:13.835Z,9.70
2017-11-21T14:45:40.025Z,9.10
2017-11-21T14:48:11.160Z,9.82
2017-11-21T14:50:37.320Z,10.30
2017-11-21T14:53:03.458Z,9.82
2017-11-21T14:55:30.454Z,10.00
2017-11-21T14:57:56.582Z,9.90
2017-11-21T15:00:23.443Z,11.68
2017-11-21T15:02:49.581Z,11.95
2017-11-21T15:05:15.794Z,11.93
2017-11-21T15:07:45.821Z,12.00
2017-11-21T15:10:11.980Z,12.40
2017-11-21T15:12:38.146Z,13.20
2017-11-21T15:15:04.301Z,13.95
2017-11-21T15:17:30.499Z,14.20
2017-11-21T15:19:56.675Z,15.55
2017-11-21T15:22:23.570Z,16.95
2017-11-21T15:24:49.834Z,16.48
2017-11-21T15:27:15.981Z,15.77
2017-11-21T15:29:42.137Z,15.20
2017-11-21T15:32:08.337Z,14.40
2017-11-21T15:34:34.508Z,15.10
2017-11-21T15:37:00.665Z,16.48
2017-11-21T15:39:27.426Z,15.82
2017-11-21T15:41:53.690Z,15.75
2017-11-21T15:44:19.856Z,17.60
2017-11-21T15:46:46.001Z,17.52
2017-11-21T15:49:12.121Z,18.30
2017-11-21T15:51:38.254Z,16.45
2017-11-21T15:54:04.592Z,17.15
2017-11-21T15:56:30.751Z,17.17
2017-11-21T15:58:56.899Z,15.27
2017-11-21T16:01:23.085Z,16.65
2017-11-21T16:03:50.136Z,16.52
2017-11-21T16:06:17.009Z,17.25
2017-11-21T16:08:43.194Z,16.10
2017-11-21T16:11:10.334Z,18.10
2017-11-21T16:13:36.633Z,16.75
2017-11-21T16:16:03.695Z,18.92
2017-11-21T16:18:31.662Z,19.08
2017-11-21T16:20:58.816Z,16.67
2017-11-21T16:23:25.041Z,18.90
2017-11-21T16:25:51.256Z,17.37
2017-11-21T16:28:17.486Z,17.77
2017-11-21T16:30:44.369Z,17.90
2017-11-21T16:33:11.285Z,20.48
2017-11-21T16:35:38.350Z,18.85
2017-11-21T16:38:05.230Z,18.40
2017-11-21T16:40:31.470Z,16.17
2017-11-21T16:42:57.705Z,18.08
2017-11-21T16:45:24.201Z,18.67
2017-11-21T16:47:50.347Z,16.87
2017-11-21T16:50:16.526Z,18.42
2017-11-21T16:52:42.666Z,17.33
2017-11-21T16:55:08.781Z,19.40
2017-11-21T16:57:34.931Z,17.37
2017-11-21T17:00:01.498Z,18.10
2017-11-21T17:02:27.657Z,19.05
2017-11-21T17:04:53.890Z,18.95
2017-11-21T17:07:20.088Z,18.08
2017-11-21T17:09:47.016Z,16.92
2017-11-21T17:12:13.349Z,17.45
2017-11-21T17:14:39.494Z,17.52
2017-11-21T17:17:05.741Z,17.85
2017-11-21T17:19:31.873Z,17.20
2017-11-21T17:21:58.080Z,18.92
2017-11-21T17:24:24.607Z,18.17
2017-11-21T17:26:50.715Z,18.92
2017-11-21T17:29:17.615Z,18.42
2017-11-21T17:31:43.762Z,18.33
2017-11-21T17:34:09.938Z,17.42
2017-11-21T17:36:36.837Z,17.10
2017-11-21T17:39:03.346Z,18.70
2017-11-21T17:41:30.245Z,17.62
2017-11-21T17:43:56.389Z,16.60
2017-11-21T17:46:22.562Z,17.55
2017-11-21T17:48:48.918Z,17.23
2017-11-21T17:51:15.129Z,17.10
2017-11-21T17:53:41.291Z,15.40
2017-11-21T17:56:07.541Z,14.10
2017-11-21T17:58:33.693Z,16.52
2017-11-21T18:01:00.607Z,16.35
2017-11-21T18:03:26.773Z,17.02
2017-11-21T18:05:52.932Z,16.80
2017-11-21T18:08:19.858Z,16.02
2017-11-21T18:10:46.061Z,15.90
2017-11-21T18:13:12.197Z,16.90
2017-11-21T18:15:38.325Z,17.77
2017-11-21T18:18:04.550Z,17.70
2017-11-21T18:20:31.054Z,18.52
2017-11-21T18:22:57.230Z,17.58
2017-11-21T18:25:23.362Z,16.48
2017-11-21T18:27:50.300Z,17.02
2017-11-21T18:30:17.289Z,18.10
2017-11-21T18:32:56.594Z,18.95
2017-11-21T18:35:22.845Z,17.62
2017-11-21T18:37:49.750Z,17.45
2017-11-21T18:40:16.039Z,18.60
2017-11-21T18:42:42.330Z,16.95
2017-11-21T18:45:08.488Z,17.33
2017-11-21T18:47:34.674Z,16.80
2017-11-21T18:50:01.652Z,15.50
2017-11-21T18:52:28.513Z,16.25
2017-11-21T18:54:55.377Z,16.83
2017-11-21T18:57:21.530Z,15.07
2017-11-21T18:59:47.666Z,17.15
2017-11-21T19:02:13.906Z,16.10
2017-11-21T19:04:40.122Z,15.77
2017-11-21T19:07:07.072Z,14.93
2017-11-21T19:09:37.048Z,17.30
2017-11-21T19:12:03.188Z,16.00
2017-11-21T19:14:29.360Z,15.10
2017-11-21T19:16:55.566Z,14.95
2017-11-21T19:19:21.708Z,16.67
2017-11-21T19:21:47.853Z,15.10
2017-11-21T19:24:14.069Z,15.20
2017-11-21T19:26:40.334Z,14.75
2017-11-21T19:29:07.198Z,16.48
2017-11-21T19:31:34.054Z,14.87
2017-11-21T19:34:00.229Z,16.55
2017-11-21T19:36:26.346Z,15.02
2017-11-21T19:38:52.478Z,16.17
2017-11-21T19:41:19.370Z,15.60
2017-11-21T19:43:45.496Z,16.17
2017-11-21T19:46:11.722Z,16.33
2017-11-21T19:48:38.612Z,17.35
2017-11-21T19:51:04.742Z,17.80
2017-11-21T19:53:30.866Z,17.85
2017-11-21T19:55:57.463Z,16.62
2017-11-21T19:58:23.586Z,16.02
2017-11-21T20:00:49.732Z,15.60
2017-11-21T20:03:15.881Z,14.23
2017-11-21T20:05:42.004Z,14.85
2017-11-21T20:08:08.930Z,12.60
2017-11-21T20:10:35.038Z,12.32
2017-11-21T20:13:02.131Z,13.52
2017-11-21T20:15:28.251Z,13.98
2017-11-21T20:17:55.205Z,15.02
2017-11-21T20:20:21.372Z,13.15
2017-11-21T20:22:47.543Z,12.52
2017-11-21T20:25:13.702Z,12.60
2017-11-21T20:27:40.633Z,13.10
2017-11-21T20:30:06.782Z,12.27
2017-11-21T20:32:32.925Z,12.75
2017-11-21T20:34:59.098Z,11.95
2017-11-21T20:37:26.027Z,11.90
2017-11-21T20:39:52.162Z,12.32
2017-11-21T20:42:18.333Z,12.27
2017-11-21T20:44:44.504Z,11.60
2017-11-21T20:47:10.638Z,13.75
2017-11-21T20:49:36.877Z,11.05
2017-11-21T20:52:03.130Z,13.50
2017-11-21T20:54:29.339Z,13.32
2017-11-21T20:56:55.457Z,12.10
2017-11-21T20:59:22.611Z,13.25
2017-11-21T21:01:48.799Z,12.20
2017-11-21T21:04:14.949Z,12.10
2017-11-21T21:06:41.198Z,12.00
2017-11-21T21:09:07.394Z,12.37
2017-11-21T21:11:33.590Z,11.50
2017-11-21T21:14:00.063Z,13.10
2017-11-21T21:16:27.000Z,13.40
2017-11-21T21:18:54.062Z,13.85
2017-11-21T21:21:20.258Z,12.82
2017-11-21T21:23:46.462Z,12.85
2017-11-21T21:26:14.100Z,13.90
2017-11-21T21:28:40.283Z,12.20
2017-11-21T21:31:06.439Z,11.98
2017-11-21T21:33:32.610Z,11.98
2017-11-21T21:35:58.711Z,13.95
2017-11-21T21:38:24.837Z,13.30
2017-11-21T21:40:51.315Z,12.63
2017-11-21T21:43:17.445Z,13.07
2017-11-21T21:45:43.601Z,13.57
2017-11-21T21:48:26.211Z,14.07
2017-11-21T21:50:56.656Z,13.05
2017-11-21T21:53:22.814Z,13.95
2017-11-21T21:55:49.190Z,13.60
2017-11-21T21:58:15.370Z,12.90
2017-11-21T22:00:41.493Z,14.25
2017-11-21T22:03:07.669Z,13.10
2017-11-21T22:05:33.834Z,13.40
2017-11-21T22:08:00.004Z,13.38
2017-11-21T22:10:26.141Z,13.60
2017-11-21T22:12:52.282Z,14.23
2017-11-21T22:15:18.481Z,12.43
2017-11-21T22:17:45.397Z,12.40
2017-11-21T22:20:11.521Z,11.73
2017-11-21T22:22:37.802Z,12.50
2017-11-21T22:25:03.954Z,11.35
2017-11-21T22:27:30.899Z,11.23
2017-11-21T22:29:57.215Z,10.52
2017-11-21T22:32:24.149Z,11.60
2017-11-21T22:34:50.277Z,12.15
2017-11-21T22:37:16.405Z,10.63
2017-11-21T22:39:43.271Z,11.20
2017-11-21T22:42:09.392Z,10.27
2017-11-21T22:44:36.266Z,11.27
2017-11-21T22:47:03.138Z,10.38
2017-11-21T22:49:29.316Z,10.68
2017-11-21T22:51:55.475Z,8.95
2017-11-21T22:54:22.494Z,10.48
2017-11-21T22:56:48.629Z,9.75
2017-11-21T22:59:14.841Z,10.75
2017-11-21T23:01:41.052Z,10.32
2017-11-21T23:04:07.979Z,10.23
2017-11-21T23:06:34.117Z,9.02
2017-11-21T23:09:00.274Z,10.23
2017-11-21T23:11:26.388Z,9.73
2017-11-21T23:13:52.533Z,9.60
2017-11-21T23:16:18.665Z,9.75
2017-11-21T23:18:44.790Z,10.45
2017-11-21T23:21:10.954Z,11.12
2017-11-21T23:23:37.102Z,9.57
2017-11-21T23:26:03.250Z,9.90
2017-11-21T23:28:30.136Z,9.02
2017-11-21T23:30:56.333Z,10.15
2017-11-21T23:33:22.478Z,10.05
2017-11-21T23:35:48.597Z,9.43
2017-11-21T23:38:15.578Z,10.73
2017-11-21T23:40:42.441Z,10.27
2017-11-21T23:43:09.365Z,10.43
2017-11-21T23:45:35.621Z,9.60
2017-11-21T23:48:01.765Z,9.43
2017-11-21T23:50:27.966Z,9.70
2017-11-21T23:52:54.053Z,8.20
2017-11-21T23:55:20.154Z,8.75
2017-11-21T23:57:52.203Z,8.90
